Time;durP1;ratioP1;P1;durP2;ratioP2;P2;SDS_P1;SDS_P2;PMS_P1;PMS_P2;Temp;Humidity;BMP_temperature;BMP_pressure;BME280_temperature;BME280_humidity;BME280_pressure;Samples;Min_cycle;Max_cycle;Signal;HPM_P1;HPM_P2
2023/12/11 00:01:43;;;;;;;;;;;;;;;8.19;100.00;99906.41;5020573;28;19983;-78
2023/12/11 00:04:09;;;;;;;;;;;;;;;8.16;100.00;99909.97;5014563;28;20036;-76
2023/12/11 00:06:35;;;;;;;;;;;;;;;8.14;100.00;99898.66;5020443;28;19968;-77
2023/12/11 00:09:00;;;;;;;;;;;;;;;8.11;100.00;99903.94;5003327;28;19975;-78
2023/12/11 00:11:25;;;;;;;;;;;;;;;8.06;100.00;99901.41;5003267;28;19975;-78
2023/12/11 00:13:53;;;;;;;;;;;;;;;7.98;100.00;99892.84;5012662;28;19927;-79
2023/12/11 00:16:21;;;;;;;;;;;;;;;7.94;100.00;99901.59;4997714;28;19983;-78
2023/12/11 00:18:46;;;;;;;;;;;;;;;7.88;100.00;99892.13;5017574;28;19921;-78
2023/12/11 00:21:13;;;;;;;;;;;;;;;7.90;100.00;99900.81;5013112;28;19999;-76
2023/12/11 00:23:39;;;;;;;;;;;;;;;7.90;100.00;99903.41;5019762;28;19924;-77
2023/12/11 00:26:04;;;;;;;;;;;;;;;7.87;100.00;99899.97;5015808;28;19940;-77
2023/12/11 00:28:29;;;;;;;;;;;;;;;7.85;100.00;99897.41;4997028;28;19932;-78
2023/12/11 00:30:55;;;;;;;;;;;;;;;7.85;100.00;99897.41;4995554;28;19921;-79
2023/12/11 00:33:20;;;;;;;;;;;;;;;7.84;100.00;99895.66;4997168;28;20306;-78
2023/12/11 00:35:46;;;;;;;;;;;;;;;7.86;100.00;99887.81;5020380;28;19928;-76
2023/12/11 00:38:11;;;;;;;;;;;;;;;7.92;100.00;99888.59;5021574;28;20382;-78
2023/12/11 00:40:39;;;;;;;;;;;;;;;7.94;100.00;99894.66;5018745;28;20002;-77
2023/12/11 00:43:05;;;;;;;;;;;;;;;7.97;100.00;99891.09;5013208;28;20386;-76
2023/12/11 00:45:30;;;;;;;;;;;;;;;7.94;100.00;99879.00;4999342;28;19929;-78
2023/12/11 00:47:55;;;;;;;;;;;;;;;7.92;100.00;99878.16;4997055;28;19929;-78
2023/12/11 00:50:21;;;;;;;;;;;;;;;7.91;100.00;99886.84;5000373;28;19921;-78
2023/12/11 00:52:47;;;;;;;;;;;;;;;7.97;100.00;99880.69;5035978;28;19925;-76
2023/12/11 00:55:13;;;;;;;;;;;;;;;7.93;100.00;99879.88;5008485;28;19916;-76
2023/12/11 00:57:38;;;;;;;;;;;;;;;7.91;100.00;99881.63;5023940;28;19966;-77
2023/12/11 01:00:04;;;;;;;;;;;;;;;7.91;100.00;99880.78;5027690;28;19916;-77
2023/12/11 01:02:29;;;;;;;;;;;;;;;7.93;100.00;99879.00;5011920;28;20014;-77
2023/12/11 01:04:54;;;;;;;;;;;;;;;7.97;100.00;99880.69;5018245;28;19925;-78
2023/12/11 01:07:20;;;;;;;;;;;;;;;7.99;100.00;99881.53;5004443;28;20020;-80
2023/12/11 01:09:46;;;;;;;;;;;;;;;8.02;100.00;99873.66;5017608;28;19924;-76
2023/12/11 01:12:12;;;;;;;;;;;;;;;8.02;100.00;99860.59;5013015;28;19925;-77
2023/12/11 01:14:37;;;;;;;;;;;;;;;8.07;100.00;99865.75;5002086;28;19975;-77
2023/12/11 01:17:03;;;;;;;;;;;;;;;8.04;100.00;99856.22;5008239;28;20311;-77
2023/12/11 01:19:28;;;;;;;;;;;;;;;8.03;100.00;99857.13;5019603;28;19917;-77
2023/12/11 01:21:53;;;;;;;;;;;;;;;8.05;100.00;99851.88;5015101;28;19921;-77
2023/12/11 01:24:19;;;;;;;;;;;;;;;8.05;100.00;99841.44;5017669;28;19929;-77
2023/12/11 01:26:44;;;;;;;;;;;;;;;8.06;100.00;99835.31;5015389;28;20390;-77
2023/12/11 01:29:09;;;;;;;;;;;;;;;8.05;100.00;99838.81;5018980;28;19925;-76
2023/12/11 01:31:35;;;;;;;;;;;;;;;8.07;100.00;99844.84;5029480;28;20389;-77
2023/12/11 01:34:00;;;;;;;;;;;;;;;8.12;100.00;99848.25;5020021;28;19921;-76
2023/12/11 01:36:25;;;;;;;;;;;;;;;8.19;100.00;99839.44;5000924;28;19972;-77
2023/12/11 01:38:51;;;;;;;;;;;;;;;8.25;100.00;99841.94;5020073;28;19924;-77
2023/12/11 01:41:16;;;;;;;;;;;;;;;8.31;100.00;99846.19;5007715;28;19955;-77
2023/12/11 01:43:50;;;;;;;;;;;;;;;8.35;100.00;99834.78;5026141;28;20344;-77
2023/12/11 01:46:18;;;;;;;;;;;;;;;8.36;100.00;99835.63;5257153;22;19963;-78
2023/12/11 01:48:45;;;;;;;;;;;;;;;8.40;100.00;99834.69;5161735;22;19928;-79
2023/12/11 02:31:36;;;;;;;;;;;;;;;8.86;100.00;99778.09;5112721;22;19928;-80
2023/12/11 02:34:02;;;;;;;;;;;;;;;8.87;100.00;99780.69;5055520;28;20234;-77
2023/12/11 02:36:28;;;;;;;;;;;;;;;8.93;100.00;99774.47;5039687;28;20023;-78
2023/12/11 02:38:53;;;;;;;;;;;;;;;8.96;100.00;99774.38;5050820;28;20363;-78
2023/12/11 02:41:18;;;;;;;;;;;;;;;8.95;100.00;99776.16;5033288;28;19922;-78
2023/12/11 02:43:44;;;;;;;;;;;;;;;8.96;100.00;99777.00;5044283;28;19963;-77
2023/12/11 02:46:09;;;;;;;;;;;;;;;8.90;100.00;99767.53;5028319;28;19921;-79
2023/12/11 02:48:34;;;;;;;;;;;;;;;8.91;100.00;99765.81;5034962;28;20027;-77
2023/12/11 02:51:00;;;;;;;;;;;;;;;8.88;100.00;99756.28;5021458;28;20011;-77
2023/12/11 02:53:25;;;;;;;;;;;;;;;8.94;100.00;99761.34;5034667;28;19943;-77
2023/12/11 02:55:50;;;;;;;;;;;;;;;8.97;100.00;99758.66;5030114;28;19929;-76
2023/12/11 02:58:16;;;;;;;;;;;;;;;8.95;100.00;99749.13;5049927;28;19922;-76
2023/12/11 03:00:41;;;;;;;;;;;;;;;8.95;100.00;99746.53;5044651;28;19943;-77
2023/12/11 03:03:09;;;;;;;;;;;;;;;8.88;100.00;99745.81;5033678;28;19970;-77
2023/12/11 03:05:35;;;;;;;;;;;;;;;8.89;100.00;99742.28;5035594;28;19974;-79
2023/12/11 03:08:05;;;;;;;;;;;;;;;8.90;100.00;99736.19;5022741;28;19937;-76
2023/12/11 03:10:31;;;;;;;;;;;;;;;8.86;100.00;99726.69;5044975;28;20419;-78
2023/12/11 03:12:57;;;;;;;;;;;;;;;8.75;100.00;99718.25;5048605;28;19978;-77
2023/12/11 03:15:23;;;;;;;;;;;;;;;8.66;100.00;99720.19;5028364;28;19921;-77
2023/12/11 03:17:48;;;;;;;;;;;;;;;8.62;100.00;99715.91;5032861;28;19974;-76
2023/12/11 03:20:13;;;;;;;;;;;;;;;8.58;100.00;99727.31;5029070;28;20270;-76
2023/12/11 03:22:40;;;;;;;;;;;;;;;8.59;100.00;99733.38;5037569;28;19942;-75
2023/12/11 03:25:05;;;;;;;;;;;;;;;8.56;100.00;99720.41;5033982;28;19927;-77
2023/12/11 03:27:30;;;;;;;;;;;;;;;8.63;100.00;99716.75;5048830;28;19928;-76
2023/12/11 03:29:56;;;;;;;;;;;;;;;8.52;100.00;99711.78;5040802;28;19923;-77
2023/12/11 03:32:21;;;;;;;;;;;;;;;8.51;100.00;99714.44;5055571;28;19924;-77
2023/12/11 03:34:49;;;;;;;;;;;;;;;8.44;100.00;99713.66;5027084;28;19920;-77
2023/12/11 03:37:14;;;;;;;;;;;;;;;8.38;100.00;99706.81;5051205;28;19912;-76
2023/12/11 03:39:41;;;;;;;;;;;;;;;8.37;100.00;99693.78;5034316;28;19928;-78
2023/12/11 03:42:07;;;;;;;;;;;;;;;8.33;100.00;99696.47;5027915;28;20274;-78
2023/12/11 03:44:32;;;;;;;;;;;;;;;8.32;100.00;99701.72;5027726;28;20029;-80
2023/12/11 03:46:58;;;;;;;;;;;;;;;8.29;100.00;99700.03;5046358;28;20602;-76
2023/12/11 03:49:23;;;;;;;;;;;;;;;8.24;100.00;99704.47;5019471;28;20019;-77
2023/12/11 03:51:49;;;;;;;;;;;;;;;8.26;100.00;99689.66;5030681;28;20382;-78
2023/12/11 03:54:14;;;;;;;;;;;;;;;8.33;100.00;99698.22;5033987;28;20274;-76
2023/12/11 03:56:39;;;;;;;;;;;;;;;8.35;100.00;99683.41;5041619;28;19920;-77
2023/12/11 03:59:05;;;;;;;;;;;;;;;8.39;100.00;99686.78;5041466;28;20076;-76
2023/12/11 04:01:30;;;;;;;;;;;;;;;8.44;100.00;99687.56;5035194;28;20287;-76
2023/12/11 04:03:56;;;;;;;;;;;;;;;8.45;100.00;99686.69;5045316;28;19921;-77
2023/12/11 04:06:22;;;;;;;;;;;;;;;8.41;100.00;99688.47;5030710;28;20335;-77
2023/12/11 04:08:51;;;;;;;;;;;;;;;8.46;100.00;99688.41;5041655;28;19970;-76
2023/12/11 04:11:16;;;;;;;;;;;;;;;8.43;100.00;99694.53;5037359;28;19925;-76
2023/12/11 04:13:42;;;;;;;;;;;;;;;8.44;100.00;99692.78;5025098;28;19948;-78
2023/12/11 04:16:07;;;;;;;;;;;;;;;8.45;100.00;99698.00;5052363;28;19924;-77
2023/12/11 04:18:35;;;;;;;;;;;;;;;8.43;100.00;99704.97;5024498;28;20042;-76
2023/12/11 04:21:00;;;;;;;;;;;;;;;8.44;100.00;99698.00;5036466;28;19924;-76
2023/12/11 04:23:26;;;;;;;;;;;;;;;8.45;100.00;99689.31;5063866;28;19935;-76
2023/12/11 04:25:53;;;;;;;;;;;;;;;8.48;100.00;99690.09;5039437;28;19927;-78
2023/12/11 04:28:18;;;;;;;;;;;;;;;8.48;100.00;99694.47;5039026;28;19932;-75
2023/12/11 04:30:43;;;;;;;;;;;;;;;8.45;100.00;99678.88;5031306;28;20023;-76
2023/12/11 04:33:09;;;;;;;;;;;;;;;8.48;100.00;99679.66;5042049;28;19928;-76
2023/12/11 04:35:34;;;;;;;;;;;;;;;8.51;100.00;99688.31;5053641;28;19924;-76
2023/12/11 04:37:59;;;;;;;;;;;;;;;8.51;100.00;99681.34;5042251;28;19927;-76
2023/12/11 04:40:26;;;;;;;;;;;;;;;8.50;100.00;99679.63;5028409;28;20019;-77
2023/12/11 04:42:51;;;;;;;;;;;;;;;8.48;100.00;99670.97;5034833;28;20002;-75
2023/12/11 04:45:17;;;;;;;;;;;;;;;8.49;100.00;99659.59;5036179;28;20011;-76
2023/12/11 04:47:42;;;;;;;;;;;;;;;8.46;100.00;99680.56;5056180;28;19921;-76
2023/12/11 04:50:08;;;;;;;;;;;;;;;8.45;100.00;99673.66;5026059;28;21368;-75
2023/12/11 04:52:33;;;;;;;;;;;;;;;8.41;100.00;99658.91;5035100;28;19971;-75
2023/12/11 04:54:58;;;;;;;;;;;;;;;8.38;100.00;99661.59;5062045;28;19934;-78
2023/12/11 04:57:23;;;;;;;;;;;;;;;8.37;100.00;99644.19;5043091;28;19920;-78
2023/12/11 04:59:49;;;;;;;;;;;;;;;8.32;100.00;99655.59;5047288;28;19920;-79
2023/12/11 05:02:15;;;;;;;;;;;;;;;8.27;100.00;99670.47;5038887;28;20055;-77
2023/12/11 05:04:40;;;;;;;;;;;;;;;8.26;100.00;99660.97;5030604;28;20382;-78
2023/12/11 05:07:06;;;;;;;;;;;;;;;8.20;100.00;99668.88;5031778;28;19927;-78
2023/12/11 05:09:31;;;;;;;;;;;;;;;8.20;100.00;99671.50;5022535;28;20529;-78
2023/12/11 05:11:57;;;;;;;;;;;;;;;8.19;100.00;99661.97;5030841;28;19959;-78
2023/12/11 05:14:22;;;;;;;;;;;;;;;8.22;100.00;99661.91;5033997;28;19920;-78
2023/12/11 05:16:47;;;;;;;;;;;;;;;8.23;100.00;99676.69;5020625;28;19917;-78
2023/12/11 05:19:13;;;;;;;;;;;;;;;8.27;100.00;99677.47;5034216;28;20285;-77
2023/12/11 05:21:41;;;;;;;;;;;;;;;8.27;100.00;99680.91;5033399;28;20338;-77
2023/12/11 05:24:07;;;;;;;;;;;;;;;8.25;100.00;99676.66;5057149;28;19912;-78
2023/12/11 05:26:32;;;;;;;;;;;;;;;8.23;100.00;99678.41;5039716;28;20448;-77
2023/12/11 05:29:00;;;;;;;;;;;;;;;8.25;100.00;99682.72;5046496;28;19927;-78
2023/12/11 05:31:25;;;;;;;;;;;;;;;8.27;100.00;99686.16;5028722;28;20468;-78
2023/12/11 05:33:50;;;;;;;;;;;;;;;8.26;100.00;99680.97;5058867;28;19928;-77
2023/12/11 05:36:16;;;;;;;;;;;;;;;8.21;100.00;99678.44;5061923;28;20358;-77
2023/12/11 05:38:41;;;;;;;;;;;;;;;8.25;100.00;99677.50;5061346;28;19947;-76
2023/12/11 05:41:06;;;;;;;;;;;;;;;8.26;100.00;99671.41;5058677;28;19927;-76
2023/12/11 05:43:32;;;;;;;;;;;;;;;8.30;100.00;99672.19;5045832;28;19916;-78
2023/12/11 05:45:57;;;;;;;;;;;;;;;8.25;100.00;99661.84;5057527;28;19927;-77
2023/12/11 05:48:22;;;;;;;;;;;;;;;8.26;100.00;99663.56;5044960;28;20446;-77
2023/12/11 05:50:47;;;;;;;;;;;;;;;8.27;100.00;99662.66;5075771;28;19916;-76
2023/12/11 05:53:13;;;;;;;;;;;;;;;8.29;100.00;99666.09;5073086;28;19923;-78
2023/12/11 05:55:38;;;;;;;;;;;;;;;8.35;100.00;99664.25;5059875;28;19920;-78
2023/12/11 05:58:03;;;;;;;;;;;;;;;8.36;100.00;99663.34;5075026;28;20051;-77
2023/12/11 06:00:29;;;;;;;;;;;;;;;8.36;100.00;99658.13;5056312;28;19981;-78
2023/12/11 06:02:54;;;;;;;;;;;;;;;8.34;100.00;99658.16;5048339;28;20011;-77
2023/12/11 06:05:19;;;;;;;;;;;;;;;8.44;100.00;99661.44;5056760;28;19935;-76
2023/12/11 06:07:45;;;;;;;;;;;;;;;8.37;100.00;99658.09;5049279;28;20130;-76
2023/12/11 06:10:10;;;;;;;;;;;;;;;8.40;100.00;99650.19;5067154;28;19931;-76
2023/12/11 06:12:37;;;;;;;;;;;;;;;8.39;100.00;99658.06;5040293;28;20401;-76
2023/12/11 06:15:03;;;;;;;;;;;;;;;8.40;100.00;99657.19;5039679;28;19927;-77
2023/12/11 06:17:28;;;;;;;;;;;;;;;8.39;100.00;99658.06;5044857;28;19920;-77
2023/12/11 06:19:53;;;;;;;;;;;;;;;8.42;100.00;99660.59;5076851;28;19970;-76
2023/12/11 06:22:19;;;;;;;;;;;;;;;8.42;100.00;99673.66;5055900;28;19927;-75
2023/12/11 06:24:44;;;;;;;;;;;;;;;8.40;100.00;99678.91;5043575;28;20376;-78
2023/12/11 06:27:10;;;;;;;;;;;;;;;8.36;100.00;99679.03;5078307;28;19928;-78
2023/12/11 06:29:35;;;;;;;;;;;;;;;8.32;100.00;99671.25;5056519;28;19928;-77
2023/12/11 06:32:01;;;;;;;;;;;;;;;8.33;100.00;99675.59;5057552;28;20531;-77
2023/12/11 06:34:26;;;;;;;;;;;;;;;8.27;100.00;99670.47;5043182;28;19920;-78
2023/12/11 06:36:51;;;;;;;;;;;;;;;8.27;100.00;99661.81;5056452;28;19920;-79
2023/12/11 06:39:17;;;;;;;;;;;;;;;8.29;100.00;99665.25;5048775;28;20270;-78
2023/12/11 06:41:43;;;;;;;;;;;;;;;8.28;100.00;99666.13;5058199;28;19920;-78
2023/12/11 06:44:09;;;;;;;;;;;;;;;8.23;100.00;99666.25;5068797;28;19964;-78
2023/12/11 06:46:36;;;;;;;;;;;;;;;8.25;100.00;99664.44;5058201;28;19920;-78
2023/12/11 06:49:02;;;;;;;;;;;;;;;8.27;100.00;99673.09;5068357;28;19975;-78
2023/12/11 06:51:29;;;;;;;;;;;;;;;8.25;100.00;99661.84;5056313;28;19944;-79
2023/12/11 06:53:58;;;;;;;;;;;;;;;8.25;100.00;99664.44;5073145;28;19923;-76
2023/12/11 06:56:24;;;;;;;;;;;;;;;8.27;100.00;99662.66;5071198;28;19924;-78
2023/12/11 06:58:49;;;;;;;;;;;;;;;8.29;100.00;99671.31;5047205;28;19973;-77
2023/12/11 07:01:15;;;;;;;;;;;;;;;8.35;100.00;99678.16;5065972;28;20425;-77
2023/12/11 07:03:41;;;;;;;;;;;;;;;8.31;100.00;99672.13;5072695;28;19924;-77
2023/12/11 07:06:06;;;;;;;;;;;;;;;8.35;100.00;99677.28;5063510;28;19916;-77
2023/12/11 07:08:32;;;;;;;;;;;;;;;8.36;100.00;99679.03;5039930;28;20286;-77
2023/12/11 07:10:57;;;;;;;;;;;;;;;8.35;100.00;99685.13;5072648;28;20296;-76
2023/12/11 07:13:22;;;;;;;;;;;;;;;8.33;100.00;99690.38;5057590;28;19956;-78
2023/12/11 07:15:47;;;;;;;;;;;;;;;8.36;100.00;99692.06;5079231;28;19962;-76
2023/12/11 07:18:13;;;;;;;;;;;;;;;8.34;100.00;99699.94;5070766;28;20292;-76
2023/12/11 07:20:40;;;;;;;;;;;;;;;8.35;100.00;99700.78;5054031;28;19935;-79
2023/12/11 07:23:05;;;;;;;;;;;;;;;8.27;100.00;99704.41;5054904;28;19927;-77
2023/12/11 07:25:31;;;;;;;;;;;;;;;8.30;100.00;99707.00;5050988;28;19924;-77
2023/12/11 07:27:56;;;;;;;;;;;;;;;8.23;100.00;99708.00;5056570;28;20030;-77
2023/12/11 07:30:22;;;;;;;;;;;;;;;8.23;100.00;99730.63;5055765;28;19921;-80
2023/12/11 07:32:47;;;;;;;;;;;;;;;8.19;100.00;99718.50;5069538;28;20270;-79
2023/12/11 07:35:15;;;;;;;;;;;;;;;8.16;100.00;99716.84;5047305;28;19916;-77
2023/12/11 07:37:43;;;;;;;;;;;;;;;8.12;100.00;99717.78;5047116;28;19935;-77
2023/12/11 07:40:09;;;;;;;;;;;;;;;8.11;100.00;99721.28;5048147;28;19973;-78
2023/12/11 07:42:35;;;;;;;;;;;;;;;8.11;100.00;99709.09;5056389;28;19970;-77
2023/12/11 07:45:00;;;;;;;;;;;;;;;8.04;100.00;99735.34;5044274;28;19929;-78
2023/12/11 07:47:25;;;;;;;;;;;;;;;8.17;100.00;99736.81;5054560;28;20397;-78
2023/12/11 07:49:51;;;;;;;;;;;;;;;8.16;100.00;99732.50;5053949;28;19929;-78
2023/12/11 07:52:18;;;;;;;;;;;;;;;8.15;100.00;99728.16;5042391;28;20015;-78
2023/12/11 07:54:44;;;;;;;;;;;;;;;8.12;100.00;99739.50;5041902;28;20381;-78
2023/12/11 07:57:09;;;;;;;;;;;;;;;8.13;100.00;99730.81;5057247;28;19939;-78
2023/12/11 07:59:34;;;;;;;;;;;;;;;8.21;100.00;99743.69;5059150;28;19920;-78
2023/12/11 08:02:00;;;;;;;;;;;;;;;8.26;100.00;99749.69;5049940;28;19932;-79
2023/12/11 08:04:25;;;;;;;;;;;;;;;8.30;100.00;99755.69;5075120;28;20516;-75
2023/12/11 08:06:50;;;;;;;;;;;;;;;8.32;100.00;99746.94;5067017;28;19924;-75
2023/12/11 08:09:16;;;;;;;;;;;;;;;8.38;100.00;99761.63;5060082;28;19924;-76
2023/12/11 08:11:42;;;;;;;;;;;;;;;8.37;100.00;99769.50;5065509;28;19923;-76
2023/12/11 08:14:07;;;;;;;;;;;;;;;8.35;100.00;99766.03;5070676;28;19917;-79
2023/12/11 08:16:35;;;;;;;;;;;;;;;8.41;100.00;99776.38;5050665;28;19927;-78
2023/12/11 08:19:00;;;;;;;;;;;;;;;8.43;100.00;99780.69;5074878;28;19924;-78
2023/12/11 08:21:26;;;;;;;;;;;;;;;8.38;100.00;99768.63;5059887;28;20274;-77
2023/12/11 08:23:51;;;;;;;;;;;;;;;8.37;100.00;99780.78;5077570;28;20281;-76
2023/12/11 08:26:20;;;;;;;;;;;;;;;8.45;100.00;99797.19;5060714;28;20014;-75
2023/12/11 08:28:49;;;;;;;;;;;;;;;8.47;100.00;99797.16;5072430;28;19962;-74
2023/12/11 08:31:15;;;;;;;;;;;;;;;8.45;100.00;99809.41;5072263;28;20417;-79
2023/12/11 08:33:40;;;;;;;;;;;;;;;8.46;100.00;99812.00;5053605;28;19920;-78
2023/12/11 08:36:06;;;;;;;;;;;;;;;8.50;100.00;99818.00;5056923;28;20008;-79
2023/12/11 08:38:32;;;;;;;;;;;;;;;8.39;100.00;99825.13;5037962;28;19917;-78
2023/12/11 08:40:58;;;;;;;;;;;;;;;8.40;100.00;99830.31;5032090;28;19970;-78
2023/12/11 08:43:23;;;;;;;;;;;;;;;8.44;100.00;99852.03;5037345;28;19919;-78
2023/12/11 08:45:48;;;;;;;;;;;;;;;8.45;100.00;99854.63;5050632;28;19917;-78
2023/12/11 08:48:14;;;;;;;;;;;;;;;8.52;100.00;99858.00;5032616;28;20024;-78
2023/12/11 08:50:40;;;;;;;;;;;;;;;8.53;100.00;99870.16;5039271;28;19927;-80
2023/12/11 08:53:05;;;;;;;;;;;;;;;8.53;100.00;99862.31;5044536;28;19927;-77
2023/12/11 08:55:31;;;;;;;;;;;;;;;8.55;100.00;99864.91;5036723;28;20419;-78
2023/12/11 08:57:56;;;;;;;;;;;;;;;8.53;100.00;99872.75;5055867;28;19966;-78
2023/12/11 09:00:22;;;;;;;;;;;;;;;8.56;100.00;99867.50;5047300;28;19969;-79
2023/12/11 09:02:48;;;;;;;;;;;;;;;8.54;100.00;99882.31;5054475;28;20000;-78
2023/12/11 09:05:14;;;;;;;;;;;;;;;8.60;100.00;99881.34;5049676;28;20473;-77
2023/12/11 09:07:40;;;;;;;;;;;;;;;8.68;100.00;99895.13;5035501;28;20027;-76
2023/12/11 09:10:07;;;;;;;;;;;;;;;8.73;100.00;99897.66;5034514;28;19931;-80
2023/12/11 09:12:32;;;;;;;;;;;;;;;8.77;100.00;99915.84;5043195;28;19912;-80
2023/12/11 09:14:58;;;;;;;;;;;;;;;8.81;100.00;99914.91;5032111;28;19940;-77
2023/12/11 09:17:23;;;;;;;;;;;;;;;8.80;100.00;99910.56;5029686;28;19921;-79
2023/12/11 09:19:48;;;;;;;;;;;;;;;8.83;100.00;99917.47;5051625;28;20289;-78
2023/12/11 09:22:14;;;;;;;;;;;;;;;8.92;100.00;99925.16;5039055;28;20023;-79
2023/12/11 09:24:40;;;;;;;;;;;;;;;9.03;100.00;99932.75;5046437;28;19920;-77
2023/12/11 09:27:05;;;;;;;;;;;;;;;9.09;100.00;99931.78;5036012;28;19924;-78
2023/12/11 09:29:30;;;;;;;;;;;;;;;9.13;100.00;99943.91;5062810;28;20343;-79
2023/12/11 09:31:56;;;;;;;;;;;;;;;9.18;100.00;99952.53;5045191;28;19925;-78
2023/12/11 09:34:21;;;;;;;;;;;;;;;9.35;100.00;99960.88;5052571;28;19920;-77
2023/12/11 09:36:46;;;;;;;;;;;;;;;9.41;100.00;99964.22;5067534;28;20270;-79
2023/12/11 09:39:14;;;;;;;;;;;;;;;9.34;100.00;99974.84;5072521;28;19916;-79
2023/12/11 09:41:40;;;;;;;;;;;;;;;9.45;100.00;99987.69;5064004;28;19920;-76
2023/12/11 09:44:07;;;;;;;;;;;;;;;9.89;100.00;99992.84;5052149;28;19932;-75
2023/12/11 09:46:38;;;;;;;;;;;;;;;10.47;100.00;99997.63;5065558;28;19920;-77
2023/12/11 09:49:04;;;;;;;;;;;;;;;10.40;100.00;100008.25;5069293;28;19978;-75
2023/12/11 09:51:30;;;;;;;;;;;;;;;10.14;100.00;100002.75;5041036;28;19925;-79
2023/12/11 09:53:56;;;;;;;;;;;;;;;9.97;100.00;100011.84;5060569;28;19924;-79
2023/12/11 09:56:22;;;;;;;;;;;;;;;9.82;100.00;100012.19;5043665;28;19975;-81
2023/12/11 09:58:47;;;;;;;;;;;;;;;9.60;100.00;100010.03;5070301;28;19923;-80
2023/12/11 10:01:13;;;;;;;;;;;;;;;9.51;100.00;100023.28;5053607;28;20502;-80
2023/12/11 10:03:39;;;;;;;;;;;;;;;9.43;100.00;100025.22;5066153;28;20258;-78
2023/12/11 10:06:04;;;;;;;;;;;;;;;9.21;100.00;100015.19;5062510;28;20045;-76
2023/12/11 10:08:30;;;;;;;;;;;;;;;9.17;100.00;100029.22;5053508;28;19964;-77
2023/12/11 10:11:26;;;;;;;;;;;;;;;9.14;100.00;100018.81;5066399;28;19923;-76
2023/12/11 10:13:52;;;;;;;;;;;;;;;9.15;100.00;100031.84;5053660;28;19982;-78
2023/12/11 10:16:30;;;;;;;;;;;;;;;9.07;100.00;100032.88;5071629;28;20369;-75
2023/12/11 10:18:59;;;;;;;;;;;;;;;9.06;100.00;100039.84;5069753;28;19920;-76
2023/12/11 10:21:24;;;;;;;;;;;;;;;9.00;100.00;100053.88;5065258;28;19916;-78
2023/12/11 10:24:03;;;;;;;;;;;;;;;9.00;100.00;100061.72;5053687;28;19931;-78
2023/12/11 10:26:29;;;;;;;;;;;;;;;9.19;100.00;100077.06;5056564;28;20302;-77
2023/12/11 10:28:54;;;;;;;;;;;;;;;8.99;100.00;100067.88;5049344;28;19921;-77
2023/12/11 10:31:20;;;;;;;;;;;;;;;8.63;100.00;100066.72;5059582;28;19967;-77
2023/12/11 10:33:49;;;;;;;;;;;;;;;8.67;100.00;100074.47;5071832;28;19920;-76
2023/12/11 10:36:15;;;;;;;;;;;;;;;8.48;100.00;100084.34;5076919;28;19921;-77
2023/12/11 10:38:42;;;;;;;;;;;;;;;8.33;100.00;100087.16;5069794;28;19924;-78
2023/12/11 10:41:08;;;;;;;;;;;;;;;8.22;100.00;100087.31;5068393;28;20016;-76
2023/12/11 10:43:42;;;;;;;;;;;;;;;8.10;100.00;100090.09;5054950;28;20015;-77
2023/12/11 10:46:08;;;;;;;;;;;;;;;8.05;100.00;100100.59;5070522;28;19996;-77
2023/12/11 10:48:34;;;;;;;;;;;;;;;7.96;100.00;100098.97;5058238;28;19924;-78
2023/12/11 10:51:00;;;;;;;;;;;;;;;7.95;100.00;100109.44;5067233;28;20286;-76
2023/12/11 10:53:26;;;;;;;;;;;;;;;7.85;100.00;100110.44;5053887;28;19921;-78
2023/12/11 10:55:53;;;;;;;;;;;;;;;7.78;100.00;100115.69;5057566;28;20501;-78
2023/12/11 10:58:18;;;;;;;;;;;;;;;7.74;100.00;100121.88;5063237;28;19962;-77
2023/12/11 11:00:44;;;;;;;;;;;;;;;7.71;100.00;100118.41;5043307;28;19921;-76
2023/12/11 11:03:11;;;;;;;;;;;;;;;7.76;100.00;100127.91;5065685;28;19912;-78
2023/12/11 11:05:36;;;;;;;;;;;;;;;7.68;100.00;100128.88;5062636;28;19912;-76
2023/12/11 11:08:21;;;;;;;;;;;;;;;7.67;100.00;100140.19;5067280;28;19927;-76
2023/12/11 11:11:08;;;;;;;;;;;;;;;7.64;100.00;100146.28;5077222;28;19917;-78
2023/12/11 11:13:44;;;;;;;;;;;;;;;7.71;100.00;100145.34;5052541;28;19917;-75
2023/12/11 11:16:09;;;;;;;;;;;;;;;7.72;100.00;100143.63;5069464;28;20019;-77
2023/12/11 11:19:01;;;;;;;;;;;;;;;7.76;100.00;100135.75;5051051;28;20027;-76
2023/12/11 11:21:26;;;;;;;;;;;;;;;7.74;100.00;100144.44;5049199;28;19956;-74
2023/12/11 11:23:51;;;;;;;;;;;;;;;7.74;100.00;100154.88;5052343;28;20361;-76
2023/12/11 11:26:30;;;;;;;;;;;;;;;7.78;100.00;100167.88;5070386;28;19931;-77
2023/12/11 11:28:56;;;;;;;;;;;;;;;7.84;100.00;100166.94;5067432;28;20446;-77
2023/12/11 11:31:41;;;;;;;;;;;;;;;7.87;100.00;100177.34;5046837;28;19955;-75
2023/12/11 11:34:07;;;;;;;;;;;;;;;7.89;100.00;100180.81;5065462;28;19912;-77
2023/12/11 11:36:46;;;;;;;;;;;;;;;7.88;100.00;100168.63;5042801;28;19920;-77
2023/12/11 11:39:12;;;;;;;;;;;;;;;7.90;100.00;100181.66;5060147;28;19923;-78
2023/12/11 11:41:38;;;;;;;;;;;;;;;7.92;100.00;100196.41;5049546;28;19921;-77
2023/12/11 11:44:07;;;;;;;;;;;;;;;7.95;100.00;100191.16;5069570;28;21445;-78
2023/12/11 11:46:51;;;;;;;;;;;;;;;7.96;100.00;100186.81;5043393;28;19917;-77
2023/12/11 11:49:43;;;;;;;;;;;;;;;7.97;100.00;100181.59;5059083;28;20378;-77
2023/12/11 11:52:10;;;;;;;;;;;;;;;8.02;100.00;100189.34;5049006;28;19963;-79
2023/12/11 11:54:36;;;;;;;;;;;;;;;8.01;100.00;100186.78;5053461;28;19967;-78
2023/12/11 11:57:01;;;;;;;;;;;;;;;8.03;100.00;100196.31;5049659;28;20224;-78
2023/12/11 11:59:26;;;;;;;;;;;;;;;8.08;100.00;100201.47;5052497;28;19916;-77
2023/12/11 12:01:53;;;;;;;;;;;;;;;8.08;100.00;100209.31;5052108;28;19920;-76
2023/12/11 12:04:34;;;;;;;;;;;;;;;8.09;100.00;100204.06;5055750;28;19919;-77
2023/12/11 12:07:03;;;;;;;;;;;;;;;8.14;100.00;100206.59;5065955;28;20015;-76
2023/12/11 12:09:33;;;;;;;;;;;;;;;8.15;100.00;100201.38;5056088;28;19921;-77
2023/12/11 12:12:00;;;;;;;;;;;;;;;8.18;100.00;100207.44;5068954;28;20346;-76
2023/12/11 12:14:25;;;;;;;;;;;;;;;8.15;100.00;100218.78;5051911;28;20425;-77
2023/12/11 12:16:52;;;;;;;;;;;;;;;8.13;100.00;100231.84;5040412;28;19921;-75
2023/12/11 12:19:28;;;;;;;;;;;;;;;8.08;100.00;100235.41;5064210;28;19917;-75
2023/12/11 12:21:56;;;;;;;;;;;;;;;8.00;100.00;100221.56;5069137;28;19916;-76
2023/12/11 12:24:22;;;;;;;;;;;;;;;7.95;100.00;100235.53;5050046;28;19921;-77
2023/12/11 12:26:52;;;;;;;;;;;;;;;7.94;100.00;100230.31;5032835;28;20293;-77
2023/12/11 12:29:17;;;;;;;;;;;;;;;7.96;100.00;100231.19;5052833;28;19920;-78
2023/12/11 12:31:43;;;;;;;;;;;;;;;7.84;100.00;100228.69;4987327;28;1855766;-78
2023/12/11 12:34:09;;;;;;;;;;;;;;;7.87;100.00;100229.50;5067602;28;19920;-77
2023/12/11 12:36:34;;;;;;;;;;;;;;;7.82;100.00;100225.25;5060973;28;19939;-78
2023/12/11 12:39:00;;;;;;;;;;;;;;;7.81;100.00;100234.78;5069289;28;19936;-79
2023/12/11 12:41:26;;;;;;;;;;;;;;;7.85;100.00;100235.66;5067197;28;20361;-78
2023/12/11 12:43:56;;;;;;;;;;;;;;;7.89;100.00;100243.41;5058150;28;20434;-77
2023/12/11 12:46:24;;;;;;;;;;;;;;;7.97;100.00;100241.59;5064718;28;19912;-78
2023/12/11 12:48:49;;;;;;;;;;;;;;;8.27;100.00;100239.50;5077284;28;19916;-78
2023/12/11 12:51:15;;;;;;;;;;;;;;;9.66;100.00;100242.72;5076982;28;19923;-79
2023/12/11 12:53:53;;;;;;;;;;;;;;;11.10;100.00;100239.84;5071721;28;19989;-77
2023/12/11 12:56:26;;;;;;;;;;;;;;;12.59;98.23;100244.69;5057217;28;19916;-77
2023/12/11 12:58:55;;;;;;;;;;;;;;;13.55;97.05;100249.59;5072328;28;20419;-79
2023/12/11 13:01:31;;;;;;;;;;;;;;;14.98;90.84;100248.84;5061429;28;20386;-77
2023/12/11 13:04:00;;;;;;;;;;;;;;;15.95;86.97;100263.38;5075496;28;20373;-78
2023/12/11 13:06:28;;;;;;;;;;;;;;;15.30;88.44;100244.94;5048509;28;19927;-79
2023/12/11 13:08:53;;;;;;;;;;;;;;;14.35;90.74;100260.84;5074855;28;20007;-78
2023/12/11 13:11:18;;;;;;;;;;;;;;;13.55;92.81;100258.38;5064028;28;20007;-79
2023/12/11 13:13:56;;;;;;;;;;;;;;;12.98;96.58;100242.59;5075545;28;19961;-79
2023/12/11 13:16:23;;;;;;;;;;;;;;;12.47;96.41;100246.78;5073163;28;19916;-78
2023/12/11 13:18:57;;;;;;;;;;;;;;;12.14;97.23;100251.25;5076430;28;19912;-78
2023/12/11 13:21:22;;;;;;;;;;;;;;;11.88;99.70;100254.50;5059126;28;19995;-78